createdAt,value
2023-02-25T00:00:33.669Z,20.80
2023-02-25T00:03:00.289Z,21.50
2023-02-25T00:05:27.172Z,21.10
2023-02-25T00:07:53.786Z,24.40
2023-02-25T00:10:19.954Z,23.20
2023-02-25T00:12:46.149Z,23.20
2023-02-25T00:15:12.859Z,21.10
2023-02-25T00:17:39.323Z,21.20
2023-02-25T00:20:09.213Z,20.40
2023-02-25T00:22:36.232Z,20.50
2023-02-25T00:25:02.670Z,20.40
2023-02-25T00:27:28.742Z,20.00
2023-02-25T00:29:54.921Z,21.60
2023-02-25T00:32:22.443Z,20.80
2023-02-25T00:34:48.775Z,22.10
2023-02-25T00:37:15.077Z,21.40
2023-02-25T00:39:44.117Z,24.00
2023-02-25T00:42:15.110Z,22.20
2023-02-25T00:44:49.840Z,20.80
2023-02-25T00:47:18.834Z,22.60
2023-02-25T00:49:47.850Z,20.60
2023-02-25T00:52:15.473Z,20.10
2023-02-25T00:54:41.761Z,20.30
2023-02-25T00:57:08.068Z,21.80
2023-02-25T00:59:35.362Z,19.80
2023-02-25T01:02:01.392Z,21.20
2023-02-25T01:04:27.509Z,20.30
2023-02-25T01:06:53.962Z,19.80
2023-02-25T01:09:20.138Z,19.50
2023-02-25T01:11:47.988Z,20.00
2023-02-25T01:14:18.221Z,20.00
2023-02-25T01:16:45.882Z,17.40
2023-02-25T01:19:21.128Z,17.80
2023-02-25T01:21:49.717Z,17.00
2023-02-25T01:24:22.261Z,18.20
2023-02-25T01:26:50.503Z,16.50
2023-02-25T01:29:19.496Z,18.10
2023-02-25T01:31:46.783Z,17.60
2023-02-25T01:34:15.820Z,16.80
2023-02-25T01:36:42.560Z,17.30
2023-02-25T01:39:10.237Z,16.80
2023-02-25T01:41:37.512Z,17.30
2023-02-25T01:44:12.324Z,17.70
2023-02-25T01:46:41.024Z,17.50
2023-02-25T01:49:32.893Z,18.30
2023-02-25T01:52:10.767Z,18.10
2023-02-25T01:54:37.977Z,18.00
2023-02-25T01:57:10.274Z,16.80
2023-02-25T02:02:03.389Z,15.40
2023-02-25T02:04:31.057Z,16.10
2023-02-25T02:06:57.849Z,16.90
2023-02-25T02:09:26.844Z,16.20
2023-02-25T02:11:53.054Z,15.60
2023-02-25T02:14:28.580Z,17.60
2023-02-25T02:17:36.583Z,14.70
2023-02-25T02:20:14.757Z,16.00
2023-02-25T02:23:09.070Z,14.20
2023-02-25T02:25:52.158Z,14.20
2023-02-25T02:28:18.162Z,14.00
2023-02-25T02:31:09.020Z,14.40
2023-02-25T02:34:01.994Z,14.20
2023-02-25T02:36:43.225Z,13.40
2023-02-25T02:39:34.075Z,13.10
2023-02-25T02:42:16.029Z,14.00
2023-02-25T02:45:01.135Z,13.60
2023-02-25T02:47:42.006Z,15.50
2023-02-25T02:50:30.204Z,16.60
2023-02-25T02:53:01.203Z,13.90
2023-02-25T02:55:53.274Z,13.70
2023-02-25T02:58:27.219Z,13.30
2023-02-25T03:01:23.677Z,13.40
2023-02-25T03:03:59.218Z,13.30
2023-02-25T03:06:32.471Z,12.40
2023-02-25T03:09:05.323Z,12.80
2023-02-25T03:11:34.241Z,12.90
2023-02-25T03:14:00.414Z,14.40
2023-02-25T03:16:40.319Z,15.30
2023-02-25T03:19:12.921Z,14.60
2023-02-25T03:21:43.364Z,16.30
2023-02-25T03:24:21.617Z,14.20
2023-02-25T03:26:52.476Z,16.20
2023-02-25T03:29:22.749Z,18.10
2023-02-25T03:32:01.029Z,16.50
2023-02-25T03:34:32.913Z,15.80
2023-02-25T03:37:08.425Z,14.60
2023-02-25T03:39:39.678Z,15.90
2023-02-25T03:42:11.783Z,16.40
2023-02-25T03:47:10.226Z,15.90
2023-02-25T03:49:45.741Z,15.00
2023-02-25T03:52:17.303Z,16.90
2023-02-25T03:54:50.816Z,17.50
2023-02-25T03:57:17.466Z,16.60
2023-02-25T03:59:43.722Z,14.50
2023-02-25T04:02:12.153Z,17.40
2023-02-25T04:04:38.292Z,17.00
2023-02-25T04:07:04.601Z,17.50
2023-02-25T04:09:30.666Z,16.30
2023-02-25T04:11:56.789Z,14.80
2023-02-25T04:14:24.132Z,16.50
2023-02-25T04:16:50.183Z,18.30
2023-02-25T04:19:16.337Z,20.10
2023-02-25T04:21:42.466Z,18.20
2023-02-25T04:24:09.736Z,18.70
2023-02-25T04:26:36.016Z,17.90
2023-02-25T04:29:03.226Z,17.70
2023-02-25T04:31:29.394Z,17.90
2023-02-25T04:33:57.450Z,18.10
2023-02-25T04:36:30.890Z,16.50
2023-02-25T04:38:58.915Z,17.70
2023-02-25T04:41:29.598Z,17.00
2023-02-25T04:43:56.013Z,15.80
2023-02-25T04:46:22.422Z,22.90
2023-02-25T04:48:48.646Z,18.30
2023-02-25T04:51:15.278Z,18.70
2023-02-25T04:53:41.439Z,14.20
2023-02-25T04:56:09.344Z,18.90
2023-02-25T04:58:36.520Z,17.20
2023-02-25T05:01:05.430Z,15.30
2023-02-25T05:03:32.840Z,14.70
2023-02-25T05:05:59.129Z,13.50
2023-02-25T05:08:25.795Z,13.80
2023-02-25T05:10:51.903Z,17.00
2023-02-25T05:13:19.370Z,16.70
2023-02-25T05:15:45.450Z,16.60
2023-02-25T05:18:11.613Z,18.90
2023-02-25T05:20:41.665Z,15.10
2023-02-25T05:23:08.313Z,17.10
2023-02-25T05:25:34.620Z,18.00
2023-02-25T05:28:01.185Z,18.50
2023-02-25T05:30:27.337Z,18.50
2023-02-25T05:32:54.034Z,18.50
2023-02-25T05:35:20.061Z,17.80
2023-02-25T05:37:46.130Z,19.70
2023-02-25T05:40:13.354Z,18.00
2023-02-25T05:42:39.668Z,20.00
2023-02-25T05:45:08.347Z,20.90
2023-02-25T05:47:35.224Z,20.30
2023-02-25T05:50:02.083Z,18.30
2023-02-25T05:52:28.170Z,19.50
2023-02-25T05:54:54.275Z,22.10
2023-02-25T05:57:23.191Z,20.30
2023-02-25T05:59:49.774Z,19.30
2023-02-25T06:02:15.812Z,21.10
2023-02-25T06:04:41.930Z,22.80
2023-02-25T06:07:08.010Z,21.40
2023-02-25T06:09:34.140Z,20.10
2023-02-25T06:12:00.424Z,20.00
2023-02-25T06:14:26.782Z,21.10
2023-02-25T06:16:56.169Z,19.70
2023-02-25T06:19:25.660Z,18.90
2023-02-25T06:21:54.985Z,19.80
2023-02-25T06:24:22.380Z,20.20
2023-02-25T06:26:48.537Z,19.80
2023-02-25T06:32:05.773Z,17.60
2023-02-25T06:34:32.068Z,17.40
2023-02-25T06:36:58.849Z,20.00
2023-02-25T06:39:24.979Z,18.80
2023-02-25T06:41:51.182Z,16.40
2023-02-25T06:44:17.425Z,17.20
2023-02-25T06:46:43.735Z,17.60
2023-02-25T06:49:10.733Z,16.40
2023-02-25T06:51:36.786Z,18.60
2023-02-25T06:54:03.998Z,14.60
2023-02-25T06:56:30.269Z,16.50
2023-02-25T06:58:58.565Z,15.50
2023-02-25T07:01:25.929Z,16.60
2023-02-25T07:03:52.611Z,18.60
2023-02-25T07:06:19.234Z,15.60
2023-02-25T07:08:45.797Z,17.80
2023-02-25T07:11:17.712Z,17.50
2023-02-25T07:13:46.087Z,15.40
2023-02-25T07:16:14.299Z,15.00
2023-02-25T07:18:41.310Z,15.70
2023-02-25T07:21:07.738Z,16.30
2023-02-25T07:23:33.970Z,15.20
2023-02-25T07:26:04.282Z,14.40
2023-02-25T07:28:30.858Z,16.30
2023-02-25T07:31:03.374Z,15.70
2023-02-25T07:33:30.421Z,13.60
2023-02-25T07:35:57.926Z,14.00
2023-02-25T07:38:24.236Z,13.50
2023-02-25T07:40:50.380Z,13.90
2023-02-25T07:43:16.462Z,15.40
2023-02-25T07:45:42.691Z,14.20
2023-02-25T07:48:09.225Z,15.00
2023-02-25T07:50:35.815Z,12.70
2023-02-25T07:53:02.172Z,13.00
2023-02-25T07:55:28.300Z,12.70
2023-02-25T07:57:54.413Z,13.40
2023-02-25T08:00:20.604Z,13.10
2023-02-25T08:02:46.813Z,11.90
2023-02-25T08:05:13.133Z,15.80
2023-02-25T08:07:39.279Z,13.80
2023-02-25T08:10:05.652Z,12.20
2023-02-25T08:12:31.863Z,12.60
2023-02-25T08:15:01.261Z,17.20
2023-02-25T08:17:31.863Z,13.20
2023-02-25T08:19:57.957Z,15.10
2023-02-25T08:22:24.086Z,13.30
2023-02-25T08:24:51.022Z,12.60
2023-02-25T08:27:17.131Z,13.60
2023-02-25T08:29:43.180Z,13.10
2023-02-25T08:32:09.423Z,14.00
2023-02-25T08:34:35.641Z,13.10
2023-02-25T08:37:01.883Z,16.50
2023-02-25T08:39:28.615Z,17.60
2023-02-25T08:41:54.666Z,17.20
2023-02-25T08:44:20.763Z,18.20
2023-02-25T08:46:47.515Z,20.80
2023-02-25T08:49:13.674Z,18.30
2023-02-25T08:51:40.231Z,14.70
2023-02-25T08:54:08.850Z,16.00
2023-02-25T08:56:36.526Z,16.80
2023-02-25T08:59:03.679Z,16.30
2023-02-25T09:01:43.918Z,17.30
2023-02-25T09:04:14.646Z,16.70
2023-02-25T09:06:40.797Z,17.20
2023-02-25T09:09:07.112Z,16.70
2023-02-25T09:11:33.297Z,17.90
2023-02-25T09:13:59.521Z,16.10
2023-02-25T09:16:28.252Z,16.40
2023-02-25T09:18:54.558Z,17.70
2023-02-25T09:21:21.236Z,16.00
2023-02-25T09:23:50.656Z,17.60
2023-02-25T09:26:18.549Z,16.70
2023-02-25T09:28:45.437Z,15.40
2023-02-25T09:31:11.766Z,16.40
2023-02-25T09:33:38.475Z,17.70
2023-02-25T09:36:15.166Z,17.40
2023-02-25T09:38:42.541Z,14.20
2023-02-25T09:41:32.799Z,15.30
2023-02-25T09:44:11.285Z,14.60
2023-02-25T09:46:43.981Z,13.30
2023-02-25T09:49:18.401Z,13.90
2023-02-25T09:51:50.157Z,11.40
2023-02-25T09:54:34.116Z,11.00
2023-02-25T09:57:03.933Z,12.50
2023-02-25T09:59:30.549Z,14.60
2023-02-25T10:02:13.188Z,14.50
2023-02-25T10:04:51.704Z,15.20
2023-02-25T10:07:28.791Z,14.00
2023-02-25T10:10:04.376Z,15.70
2023-02-25T10:12:38.694Z,15.80
2023-02-25T10:15:07.771Z,16.30
2023-02-25T10:17:56.088Z,17.60
2023-02-25T10:20:38.705Z,15.90
2023-02-25T10:23:27.148Z,15.50
2023-02-25T10:26:00.067Z,12.80
2023-02-25T10:28:29.129Z,14.00
2023-02-25T10:31:03.214Z,15.40
2023-02-25T10:33:39.653Z,15.30
2023-02-25T10:36:14.817Z,12.90
2023-02-25T10:38:46.768Z,13.90
2023-02-25T10:41:13.433Z,11.00
2023-02-25T10:43:40.114Z,10.80
2023-02-25T10:46:23.271Z,11.10
2023-02-25T10:49:01.208Z,12.20
2023-02-25T10:51:29.099Z,13.30
2023-02-25T10:53:58.711Z,12.40
2023-02-25T10:56:30.597Z,12.80
2023-02-25T10:59:19.893Z,12.90
2023-02-25T11:01:47.593Z,12.00
2023-02-25T11:04:19.428Z,12.60
2023-02-25T11:06:45.918Z,12.40
2023-02-25T11:09:20.955Z,10.20
2023-02-25T11:12:07.822Z,10.50
2023-02-25T11:14:36.850Z,9.20
2023-02-25T11:17:07.246Z,9.60
2023-02-25T11:19:45.229Z,10.50
2023-02-25T11:22:21.522Z,10.50
2023-02-25T11:25:03.328Z,9.10
2023-02-25T11:27:41.608Z,9.70
2023-02-25T11:30:19.601Z,8.10
2023-02-25T11:32:54.761Z,8.50
2023-02-25T11:35:29.960Z,7.60
2023-02-25T11:37:58.213Z,5.90
2023-02-25T11:40:43.477Z,4.50
2023-02-25T11:43:24.773Z,3.20
2023-02-25T11:45:57.009Z,5.30
2023-02-25T11:48:43.263Z,4.40
2023-02-25T11:51:31.218Z,3.10
2023-02-25T11:54:26.735Z,4.10
2023-02-25T11:57:11.020Z,3.50
2023-02-25T11:59:49.255Z,8.40
2023-02-25T12:02:33.279Z,5.40
2023-02-25T12:05:26.707Z,4.70
2023-02-25T12:08:32.410Z,4.60
2023-02-25T12:11:17.368Z,4.30
2023-02-25T12:14:25.816Z,3.10
2023-02-25T12:17:16.157Z,3.90
2023-02-25T12:20:16.226Z,4.10
2023-02-25T12:23:23.218Z,2.60
2023-02-25T12:26:09.376Z,3.50
2023-02-25T12:28:48.766Z,12.00
2023-02-25T12:31:30.294Z,6.00
2023-02-25T12:34:33.817Z,4.10
2023-02-25T12:37:02.807Z,3.90
2023-02-25T12:39:31.676Z,4.10
2023-02-25T12:42:21.895Z,4.30
2023-02-25T12:45:30.269Z,3.60
2023-02-25T12:48:20.929Z,2.90
2023-02-25T12:51:25.196Z,2.80
2023-02-25T12:54:33.170Z,4.10
2023-02-25T12:57:17.240Z,3.30
2023-02-25T12:59:52.620Z,2.80
2023-02-25T13:02:49.680Z,3.90
2023-02-25T13:05:15.730Z,5.30
2023-02-25T13:08:03.303Z,4.40
2023-02-25T13:11:06.776Z,3.10
2023-02-25T13:13:56.210Z,4.70
2023-02-25T13:16:24.964Z,3.60
2023-02-25T13:19:04.105Z,3.20
2023-02-25T13:21:44.992Z,3.60
2023-02-25T13:24:18.502Z,4.80
2023-02-25T13:26:56.640Z,2.90
2023-02-25T13:29:26.742Z,4.50
2023-02-25T13:32:06.683Z,4.40
2023-02-25T13:34:46.930Z,3.30
2023-02-25T13:37:59.157Z,3.50
2023-02-25T13:40:37.025Z,3.10
2023-02-25T13:43:21.154Z,4.10
2023-02-25T13:46:10.214Z,3.60
2023-02-25T13:48:48.513Z,4.40
2023-02-25T13:51:53.207Z,4.10
2023-02-25T13:54:57.965Z,2.80
2023-02-25T13:57:47.037Z,2.60
2023-02-25T14:00:34.597Z,4.30
2023-02-25T14:03:13.115Z,3.10
2023-02-25T14:06:09.885Z,2.50
2023-02-25T14:09:12.755Z,2.80
2023-02-25T14:11:47.932Z,3.90
2023-02-25T14:14:41.871Z,4.60
2023-02-25T14:17:44.893Z,4.10
2023-02-25T14:20:42.165Z,5.00
2023-02-25T14:23:16.330Z,3.70
2023-02-25T14:25:54.320Z,5.30
2023-02-25T14:28:41.091Z,2.70
2023-02-25T14:31:26.731Z,3.30
2023-02-25T14:34:02.203Z,3.00
2023-02-25T14:36:33.167Z,3.90
2023-02-25T14:39:05.276Z,5.20
2023-02-25T14:44:23.582Z,3.20
2023-02-25T14:46:49.591Z,3.50
2023-02-25T14:49:22.613Z,4.00
2023-02-25T14:52:26.398Z,3.40
2023-02-25T14:55:13.522Z,3.20
2023-02-25T14:57:51.626Z,3.40
2023-02-25T15:00:33.069Z,4.30
2023-02-25T15:03:26.877Z,3.50
2023-02-25T15:06:12.911Z,2.40
2023-02-25T15:08:57.690Z,2.80
2023-02-25T15:11:26.813Z,2.10
2023-02-25T15:14:09.582Z,3.10
2023-02-25T15:17:07.690Z,3.80
2023-02-25T15:20:32.663Z,3.10
2023-02-25T15:23:12.987Z,3.30
2023-02-25T15:25:39.512Z,6.00
2023-02-25T15:28:29.984Z,3.80
2023-02-25T15:30:59.616Z,4.50
2023-02-25T15:33:39.006Z,4.00
2023-02-25T15:36:13.992Z,4.10
2023-02-25T15:38:57.668Z,5.70
2023-02-25T15:41:26.906Z,4.90
2023-02-25T15:43:53.658Z,4.40
2023-02-25T15:46:22.607Z,5.30
2023-02-25T15:49:06.900Z,4.10
2023-02-25T15:51:54.233Z,4.30
2023-02-25T15:54:29.530Z,3.80
2023-02-25T15:57:00.967Z,3.90
2023-02-25T15:59:45.438Z,4.20
2023-02-25T16:02:27.253Z,4.50
2023-02-25T16:04:57.000Z,2.80
2023-02-25T16:07:30.608Z,3.40
2023-02-25T16:10:00.646Z,3.50
2023-02-25T16:12:28.458Z,3.10
2023-02-25T16:14:57.510Z,3.60
2023-02-25T16:17:35.103Z,3.10
2023-02-25T16:20:22.517Z,4.00
2023-02-25T16:22:53.887Z,2.50
2023-02-25T16:25:28.518Z,3.60
2023-02-25T16:28:21.871Z,3.20
2023-02-25T16:30:57.166Z,5.00
2023-02-25T16:33:28.373Z,2.10
2023-02-25T16:36:15.125Z,3.50
2023-02-25T16:38:57.484Z,4.10
2023-02-25T16:41:33.312Z,3.70
2023-02-25T16:44:04.494Z,4.20
2023-02-25T16:46:33.879Z,3.80
2023-02-25T16:49:04.057Z,3.00
2023-02-25T16:51:33.237Z,3.60
2023-02-25T16:54:06.332Z,4.00
2023-02-25T16:56:33.111Z,3.50
2023-02-25T16:59:05.139Z,4.40
2023-02-25T17:01:33.912Z,5.00
2023-02-25T17:04:16.109Z,6.20
2023-02-25T17:06:42.688Z,4.80
2023-02-25T17:09:22.503Z,4.60
2023-02-25T17:11:54.272Z,4.50
2023-02-25T17:14:20.574Z,4.00
2023-02-25T17:16:47.548Z,3.00
2023-02-25T17:19:16.878Z,5.70
2023-02-25T17:21:49.773Z,4.80
2023-02-25T17:24:20.314Z,3.40
2023-02-25T17:26:48.955Z,4.50
2023-02-25T17:29:17.064Z,3.60
2023-02-25T17:31:52.106Z,2.50
2023-02-25T17:34:27.318Z,3.60
2023-02-25T17:36:54.872Z,4.20
2023-02-25T17:39:21.771Z,4.40
2023-02-25T17:41:48.466Z,2.90
2023-02-25T17:44:46.892Z,5.10
2023-02-25T17:47:20.893Z,4.10
2023-02-25T17:49:47.386Z,5.90
2023-02-25T17:52:25.725Z,3.90
2023-02-25T17:54:59.480Z,3.60
2023-02-25T17:57:27.522Z,3.20
2023-02-25T18:00:04.679Z,4.60
2023-02-25T18:02:39.517Z,4.60
2023-02-25T18:05:08.825Z,4.60
2023-02-25T18:07:35.011Z,4.50
2023-02-25T18:10:01.397Z,4.20
2023-02-25T18:12:33.732Z,3.20
2023-02-25T18:15:02.236Z,4.40
2023-02-25T18:17:33.185Z,3.20
2023-02-25T18:20:21.155Z,3.80
2023-02-25T18:22:48.673Z,5.60
2023-02-25T18:25:45.161Z,4.40
2023-02-25T18:28:17.066Z,8.50
2023-02-25T18:30:45.440Z,4.80
2023-02-25T18:33:11.701Z,4.60
2023-02-25T18:35:41.338Z,3.20
2023-02-25T18:38:18.753Z,2.90
2023-02-25T18:40:45.568Z,4.10
2023-02-25T18:43:20.809Z,4.80
2023-02-25T18:45:48.234Z,5.20
2023-02-25T18:48:14.708Z,4.60
2023-02-25T18:50:43.772Z,3.30
2023-02-25T18:53:22.263Z,4.20
2023-02-25T18:55:50.167Z,4.00
2023-02-25T18:58:17.866Z,3.80
2023-02-25T19:00:47.259Z,5.10
2023-02-25T19:03:45.340Z,3.90
2023-02-25T19:06:11.677Z,3.90
2023-02-25T19:08:37.903Z,5.70
2023-02-25T19:11:05.018Z,4.60
2023-02-25T19:13:40.112Z,3.90
2023-02-25T19:16:07.349Z,2.70
2023-02-25T19:18:34.248Z,2.90
2023-02-25T19:21:00.725Z,3.30
2023-02-25T19:23:28.632Z,4.40
2023-02-25T19:25:58.066Z,4.00
2023-02-25T19:28:24.533Z,2.30
2023-02-25T19:30:51.043Z,3.30
2023-02-25T19:33:17.250Z,2.80
2023-02-25T19:35:44.480Z,4.50
2023-02-25T19:38:16.976Z,3.60
2023-02-25T19:40:44.487Z,2.80
2023-02-25T19:43:12.090Z,3.20
2023-02-25T19:45:39.848Z,3.70
2023-02-25T19:48:06.736Z,4.60
2023-02-25T19:50:34.390Z,3.20
2023-02-25T19:53:02.057Z,3.40
2023-02-25T19:55:28.742Z,3.60
2023-02-25T19:57:55.440Z,3.30
2023-02-25T20:00:25.194Z,2.60
2023-02-25T20:02:53.325Z,4.40
2023-02-25T20:05:21.775Z,3.30
2023-02-25T20:07:48.234Z,3.20
2023-02-25T20:10:15.052Z,3.60
2023-02-25T20:12:43.218Z,4.90
2023-02-25T20:15:11.245Z,3.50
2023-02-25T20:17:39.475Z,3.90
2023-02-25T20:20:07.966Z,4.40
2023-02-25T20:22:35.468Z,3.70
2023-02-25T20:25:02.540Z,5.50
2023-02-25T20:27:28.917Z,4.10
2023-02-25T20:29:55.144Z,2.90
2023-02-25T20:32:21.764Z,3.40
2023-02-25T20:34:48.287Z,5.30
2023-02-25T20:37:20.563Z,2.50
2023-02-25T20:39:55.667Z,3.90
2023-02-25T20:42:26.947Z,6.50
2023-02-25T20:44:53.757Z,4.10
2023-02-25T20:47:23.104Z,4.70
2023-02-25T20:49:50.004Z,3.50
2023-02-25T20:52:16.561Z,3.90
2023-02-25T20:54:43.168Z,4.70
2023-02-25T20:57:13.387Z,4.90
2023-02-25T20:59:39.848Z,4.60
2023-02-25T21:02:07.020Z,3.40
2023-02-25T21:04:33.412Z,3.50
2023-02-25T21:06:59.695Z,3.20
2023-02-25T21:09:26.373Z,3.40
2023-02-25T21:11:52.476Z,3.30
2023-02-25T21:14:18.887Z,2.90
2023-02-25T21:16:44.996Z,2.70
2023-02-25T21:19:11.559Z,3.40
2023-02-25T21:21:37.864Z,2.90
2023-02-25T21:24:09.667Z,3.70
2023-02-25T21:26:38.711Z,2.40
2023-02-25T21:29:05.592Z,2.30
2023-02-25T21:31:32.173Z,5.20
2023-02-25T21:33:59.319Z,3.10
2023-02-25T21:36:26.311Z,3.50
2023-02-25T21:38:55.187Z,3.80
2023-02-25T21:41:22.175Z,3.50
2023-02-25T21:43:51.070Z,3.50
2023-02-25T21:46:17.204Z,2.90
2023-02-25T21:48:46.077Z,2.30
2023-02-25T21:51:15.986Z,2.30
2023-02-25T21:53:42.075Z,2.90
2023-02-25T21:56:13.214Z,2.50
2023-02-25T21:58:40.401Z,2.30
2023-02-25T22:01:14.765Z,2.50
2023-02-25T22:03:41.361Z,3.50
2023-02-25T22:06:08.375Z,6.20
2023-02-25T22:08:35.182Z,3.90
2023-02-25T22:11:01.395Z,4.50
2023-02-25T22:13:32.895Z,2.80
2023-02-25T22:16:02.077Z,3.10
2023-02-25T22:18:28.211Z,3.80
2023-02-25T22:21:13.290Z,2.70
2023-02-25T22:23:42.648Z,3.60
2023-02-25T22:26:14.314Z,2.80
2023-02-25T22:28:41.260Z,3.90
2023-02-25T22:31:16.175Z,2.50
2023-02-25T22:33:43.126Z,2.90
2023-02-25T22:36:10.664Z,2.20
2023-02-25T22:38:39.294Z,1.90
2023-02-25T22:41:10.878Z,1.80
2023-02-25T22:43:36.931Z,2.30
2023-02-25T22:46:14.872Z,2.50
2023-02-25T22:48:42.635Z,3.50
2023-02-25T22:51:09.771Z,2.90
2023-02-25T22:53:40.044Z,3.40
2023-02-25T22:56:08.654Z,2.60
2023-02-25T22:58:38.087Z,3.10
2023-02-25T23:01:04.622Z,2.00
2023-02-25T23:03:30.860Z,2.60
2023-02-25T23:05:56.940Z,4.50
2023-02-25T23:08:23.386Z,3.70
2023-02-25T23:10:49.695Z,3.00
2023-02-25T23:13:16.077Z,3.40
2023-02-25T23:15:44.903Z,2.20
2023-02-25T23:18:11.192Z,2.70
2023-02-25T23:20:37.990Z,3.90
2023-02-25T23:23:05.639Z,2.70
2023-02-25T23:25:34.625Z,1.90
2023-02-25T23:28:01.727Z,2.80
2023-02-25T23:30:28.099Z,2.40
2023-02-25T23:32:56.753Z,3.70
2023-02-25T23:35:23.258Z,3.20
2023-02-25T23:37:49.460Z,2.30
2023-02-25T23:40:16.041Z,3.50
2023-02-25T23:42:43.433Z,2.80
2023-02-25T23:45:12.203Z,2.70
2023-02-25T23:47:42.077Z,1.90
2023-02-25T23:50:14.887Z,2.80
2023-02-25T23:52:43.124Z,2.30
2023-02-25T23:55:11.284Z,1.60
2023-02-25T23:57:38.065Z,2.50
